Time;durP1;ratioP1;P1;durP2;ratioP2;P2;SDS_P1;SDS_P2;PMS_P1;PMS_P2;Temp;Humidity;BMP_temperature;BMP_pressure;BME280_temperature;BME280_humidity;BME280_pressure;Samples;Min_cycle;Max_cycle;Signal;HPM_P1;HPM_P2
2021/03/04 00:00:13;;;;;;;51.72;29.05;;;;;;;;;;5120108;27;20179;-40
2021/03/04 00:02:39;;;;;;;44.83;28.03;;;;;;;;;;5103745;28;20173;-41
2021/03/04 00:05:05;;;;;;;46.80;27.90;;;;;;;;;;5089978;28;20559;-41
2021/03/04 00:07:30;;;;;;;46.23;27.73;;;;;;;;;;5102205;27;20586;-41
2021/03/04 00:09:55;;;;;;;45.72;26.90;;;;;;;;;;5096852;28;21081;-40
2021/03/04 00:12:21;;;;;;;46.85;29.00;;;;;;;;;;5110695;27;20681;-41
2021/03/04 00:14:46;;;;;;;43.20;27.95;;;;;;;;;;5106222;28;20176;-40
2021/03/04 00:17:11;;;;;;;51.45;29.70;;;;;;;;;;5107260;28;20197;-41
2021/03/04 00:19:36;;;;;;;44.17;29.07;;;;;;;;;;5100958;28;20632;-41
2021/03/04 00:22:01;;;;;;;49.85;28.40;;;;;;;;;;5113069;27;20604;-46
2021/03/04 00:24:26;;;;;;;46.90;28.47;;;;;;;;;;5122350;27;20634;-42
2021/03/04 00:26:52;;;;;;;46.35;27.25;;;;;;;;;;5109908;28;20697;-42
2021/03/04 00:29:17;;;;;;;39.90;27.50;;;;;;;;;;5107771;28;20691;-42
2021/03/04 00:31:42;;;;;;;51.90;29.57;;;;;;;;;;5102115;27;20180;-42
2021/03/04 00:34:07;;;;;;;42.35;27.77;;;;;;;;;;5127364;27;20801;-42
2021/03/04 00:36:33;;;;;;;45.10;28.17;;;;;;;;;;5108717;28;20280;-42
2021/03/04 00:38:59;;;;;;;48.17;29.03;;;;;;;;;;5104541;28;20172;-41
2021/03/04 00:41:24;;;;;;;44.33;27.60;;;;;;;;;;5109667;28;20321;-42
2021/03/04 00:43:49;;;;;;;50.63;30.37;;;;;;;;;;5111273;27;21395;-42
2021/03/04 00:46:14;;;;;;;43.80;27.95;;;;;;;;;;5124955;27;20233;-42
2021/03/04 00:48:39;;;;;;;44.03;27.17;;;;;;;;;;5089496;28;20192;-41
2021/03/04 00:51:04;;;;;;;44.77;27.90;;;;;;;;;;5097091;28;20170;-42
2021/03/04 00:53:30;;;;;;;41.03;25.10;;;;;;;;;;5109385;28;20219;-42
2021/03/04 00:55:55;;;;;;;45.40;26.50;;;;;;;;;;5104050;28;21254;-42
2021/03/04 00:58:20;;;;;;;44.53;26.42;;;;;;;;;;5102121;28;20229;-42
2021/03/04 01:00:45;;;;;;;46.67;27.58;;;;;;;;;;5097415;28;20665;-41
2021/03/04 01:03:10;;;;;;;49.38;29.42;;;;;;;;;;5094423;28;20165;-41
2021/03/04 01:05:35;;;;;;;44.57;28.50;;;;;;;;;;5106979;28;20206;-42
2021/03/04 01:08:01;;;;;;;43.77;27.07;;;;;;;;;;5097861;28;20176;-41
2021/03/04 01:10:39;;;;;;;44.30;28.23;;;;;;;;;;5107636;28;20179;-41
2021/03/04 01:13:04;;;;;;;41.53;26.50;;;;;;;;;;5098840;28;20266;-42
2021/03/04 01:15:30;;;;;;;45.87;27.87;;;;;;;;;;5094080;28;20753;-41
2021/03/04 01:17:55;;;;;;;43.67;25.23;;;;;;;;;;5096462;28;20641;-41
2021/03/04 01:20:21;;;;;;;42.57;27.73;;;;;;;;;;5108988;28;20570;-41
2021/03/04 01:22:46;;;;;;;45.03;28.53;;;;;;;;;;5106259;28;20171;-47
2021/03/04 01:25:11;;;;;;;46.00;27.17;;;;;;;;;;5099085;28;20804;-41
2021/03/04 01:27:37;;;;;;;48.50;26.47;;;;;;;;;;5108961;28;20191;-42
2021/03/04 01:30:06;;;;;;;42.10;27.63;;;;;;;;;;5101410;28;20179;-42
2021/03/04 01:32:32;;;;;;;43.70;27.47;;;;;;;;;;5090577;28;20178;-42
2021/03/04 01:34:57;;;;;;;44.27;28.10;;;;;;;;;;5102307;28;20656;-41
2021/03/04 01:37:22;;;;;;;43.20;28.00;;;;;;;;;;5099461;28;20276;-42
2021/03/04 01:39:47;;;;;;;42.40;26.60;;;;;;;;;;5088900;28;20695;-41
2021/03/04 01:42:12;;;;;;;47.28;27.80;;;;;;;;;;5103391;28;20592;-41
2021/03/04 01:44:37;;;;;;;48.03;29.17;;;;;;;;;;5101963;28;20615;-42
2021/03/04 01:47:03;;;;;;;44.80;26.10;;;;;;;;;;5095025;28;20220;-41
2021/03/04 01:49:28;;;;;;;45.70;28.77;;;;;;;;;;5101494;28;20191;-41
2021/03/04 01:51:53;;;;;;;45.07;26.93;;;;;;;;;;5122805;27;20180;-42
2021/03/04 01:54:18;;;;;;;40.60;26.55;;;;;;;;;;5123608;27;20542;-42
2021/03/04 01:56:44;;;;;;;42.47;26.70;;;;;;;;;;5105757;28;20205;-41
2021/03/04 01:59:09;;;;;;;43.57;26.63;;;;;;;;;;5106102;28;20171;-41
2021/03/04 02:02:11;;;;;;;39.30;26.90;;;;;;;;;;5105191;27;20261;-40
2021/03/04 02:04:37;;;;;;;45.13;26.80;;;;;;;;;;5100502;28;20189;-43
2021/03/04 02:07:08;;;;;;;46.83;28.77;;;;;;;;;;5111652;28;20640;-43
2021/03/04 02:09:34;;;;;;;43.80;26.97;;;;;;;;;;5107406;28;20198;-42
2021/03/04 02:12:02;;;;;;;45.37;26.77;;;;;;;;;;5103485;27;20638;-42
2021/03/04 02:14:30;;;;;;;45.13;28.20;;;;;;;;;;5092134;28;20179;-42
2021/03/04 02:16:57;;;;;;;42.43;27.37;;;;;;;;;;5108803;28;20717;-42
2021/03/04 02:19:36;;;;;;;40.67;27.47;;;;;;;;;;5110741;28;20595;-42
2021/03/04 02:22:20;;;;;;;48.40;27.13;;;;;;;;;;5117926;27;21374;-43
2021/03/04 02:25:03;;;;;;;47.70;28.47;;;;;;;;;;5107794;27;20596;-41
2021/03/04 02:27:29;;;;;;;41.63;26.03;;;;;;;;;;5092173;28;20600;-41
2021/03/04 02:30:04;;;;;;;47.23;26.90;;;;;;;;;;5092223;28;20601;-42
2021/03/04 02:32:30;;;;;;;44.93;26.80;;;;;;;;;;5105602;27;20231;-42
2021/03/04 02:35:00;;;;;;;48.80;27.60;;;;;;;;;;5096889;28;20606;-42
2021/03/04 02:37:28;;;;;;;39.73;26.53;;;;;;;;;;5121134;27;21250;-41
2021/03/04 02:39:54;;;;;;;45.93;27.17;;;;;;;;;;5119883;27;20624;-42
2021/03/04 02:42:20;;;;;;;47.63;26.87;;;;;;;;;;5111562;28;20941;-42
2021/03/04 02:44:46;;;;;;;46.07;28.87;;;;;;;;;;5108470;27;20588;-42
2021/03/04 02:47:12;;;;;;;47.93;28.03;;;;;;;;;;5111370;28;20666;-42
2021/03/04 02:49:38;;;;;;;43.70;27.27;;;;;;;;;;5103974;28;20719;-42
2021/03/04 02:52:04;;;;;;;47.00;28.47;;;;;;;;;;5108078;27;21250;-43
2021/03/04 02:54:30;;;;;;;44.30;27.70;;;;;;;;;;5105853;27;20188;-42
2021/03/04 02:56:55;;;;;;;45.63;26.20;;;;;;;;;;5091534;28;20726;-40
2021/03/04 02:59:21;;;;;;;43.47;26.67;;;;;;;;;;5091813;28;20629;-43
2021/03/04 03:01:46;;;;;;;47.40;28.10;;;;;;;;;;5108063;28;20174;-43
2021/03/04 03:04:12;;;;;;;45.20;28.93;;;;;;;;;;5117691;27;20643;-42
2021/03/04 03:06:38;;;;;;;43.23;26.53;;;;;;;;;;5111514;28;20181;-42
2021/03/04 03:09:04;;;;;;;47.33;27.00;;;;;;;;;;5106493;28;20179;-42
2021/03/04 03:11:30;;;;;;;46.67;28.50;;;;;;;;;;5092550;28;21177;-41
2021/03/04 03:13:56;;;;;;;44.50;27.03;;;;;;;;;;5094325;28;21160;-41
2021/03/04 03:16:21;;;;;;;45.23;27.33;;;;;;;;;;5111979;27;21036;-42
2021/03/04 03:18:46;;;;;;;44.63;26.83;;;;;;;;;;5106322;28;20621;-42
2021/03/04 03:21:12;;;;;;;45.10;26.47;;;;;;;;;;5109417;28;20188;-42
2021/03/04 03:23:37;;;;;;;45.33;27.60;;;;;;;;;;5106299;28;20170;-42
2021/03/04 03:26:02;;;;;;;42.50;26.60;;;;;;;;;;5092529;28;20166;-42
2021/03/04 03:28:27;;;;;;;44.03;27.23;;;;;;;;;;5111897;27;20170;-42
2021/03/04 03:30:54;;;;;;;43.57;26.40;;;;;;;;;;5109821;28;20659;-41
2021/03/04 03:33:19;;;;;;;42.77;27.47;;;;;;;;;;5110145;28;20181;-42
2021/03/04 03:35:44;;;;;;;42.70;24.50;;;;;;;;;;5102202;27;20713;-42
2021/03/04 03:38:10;;;;;;;46.73;28.30;;;;;;;;;;5131293;27;20201;-41
2021/03/04 03:40:36;;;;;;;44.03;26.10;;;;;;;;;;5108348;28;20190;-42
2021/03/04 03:43:03;;;;;;;44.90;27.23;;;;;;;;;;5090485;28;21117;-41
2021/03/04 03:45:30;;;;;;;45.30;26.60;;;;;;;;;;5107049;28;20508;-42
2021/03/04 03:47:56;;;;;;;48.37;29.90;;;;;;;;;;5111638;27;20611;-42
2021/03/04 03:50:21;;;;;;;41.80;27.00;;;;;;;;;;5094419;28;20608;-43
2021/03/04 03:52:47;;;;;;;49.80;30.37;;;;;;;;;;5108448;28;20643;-42
2021/03/04 03:55:13;;;;;;;42.60;28.33;;;;;;;;;;5096038;28;20174;-42
2021/03/04 03:57:39;;;;;;;44.47;29.30;;;;;;;;;;5090016;28;20237;-43
2021/03/04 04:00:05;;;;;;;46.80;28.10;;;;;;;;;;5101398;27;20585;-42
2021/03/04 04:02:30;;;;;;;49.23;27.80;;;;;;;;;;5104700;28;20666;-43
2021/03/04 04:04:56;;;;;;;41.30;25.90;;;;;;;;;;5110453;28;20304;-42
2021/03/04 04:07:22;;;;;;;40.37;27.43;;;;;;;;;;5110014;28;20178;-42
2021/03/04 04:09:47;;;;;;;45.33;26.47;;;;;;;;;;5108529;28;20179;-42
2021/03/04 04:12:12;;;;;;;45.50;28.80;;;;;;;;;;5110810;27;20690;-42
2021/03/04 04:14:38;;;;;;;45.50;25.77;;;;;;;;;;5097404;28;20300;-43
2021/03/04 04:17:04;;;;;;;46.00;27.73;;;;;;;;;;5090140;28;20202;-43
2021/03/04 04:19:29;;;;;;;45.23;27.10;;;;;;;;;;5104415;28;20957;-42
2021/03/04 04:21:55;;;;;;;48.17;28.20;;;;;;;;;;5112273;27;20170;-42
2021/03/04 04:24:20;;;;;;;46.80;27.50;;;;;;;;;;5109997;28;20169;-42
2021/03/04 04:26:45;;;;;;;42.43;27.10;;;;;;;;;;5112697;27;20173;-42
2021/03/04 04:29:10;;;;;;;42.43;26.87;;;;;;;;;;5126886;27;20186;-42
2021/03/04 04:31:36;;;;;;;43.75;24.92;;;;;;;;;;5126374;27;20231;-41
2021/03/04 04:34:01;;;;;;;44.37;28.03;;;;;;;;;;5118371;27;20248;-42
2021/03/04 04:36:26;;;;;;;42.13;26.40;;;;;;;;;;5100584;27;20704;-41
2021/03/04 04:38:51;;;;;;;47.80;28.65;;;;;;;;;;5116593;27;20185;-42
2021/03/04 04:41:16;;;;;;;39.97;26.13;;;;;;;;;;5106522;28;20189;-41
2021/03/04 04:43:41;;;;;;;45.07;27.30;;;;;;;;;;5117576;27;20180;-40
2021/03/04 04:46:07;;;;;;;43.47;26.38;;;;;;;;;;5111350;27;20220;-41
2021/03/04 04:48:32;;;;;;;43.40;28.40;;;;;;;;;;5106517;28;20257;-41
2021/03/04 04:50:57;;;;;;;41.78;26.95;;;;;;;;;;5104903;28;20632;-41
2021/03/04 04:53:22;;;;;;;42.57;27.40;;;;;;;;;;5107488;28;20173;-40
2021/03/04 04:55:48;;;;;;;43.17;25.52;;;;;;;;;;5103762;28;20523;-41
2021/03/04 04:58:13;;;;;;;38.37;26.00;;;;;;;;;;5115315;27;20619;-41
2021/03/04 05:00:38;;;;;;;39.95;25.85;;;;;;;;;;5099015;28;20169;-40
2021/03/04 05:03:03;;;;;;;42.80;26.67;;;;;;;;;;5103741;28;20169;-41
2021/03/04 05:05:28;;;;;;;44.13;25.33;;;;;;;;;;5100290;28;20203;-40
2021/03/04 05:07:54;;;;;;;44.10;27.97;;;;;;;;;;5107448;28;20668;-41
2021/03/04 05:10:19;;;;;;;43.70;27.97;;;;;;;;;;5105760;28;20533;-41
2021/03/04 05:12:44;;;;;;;40.67;26.20;;;;;;;;;;5120883;28;20178;-41
2021/03/04 05:15:10;;;;;;;43.33;27.90;;;;;;;;;;5111545;28;20252;-41
2021/03/04 05:17:35;;;;;;;46.83;27.13;;;;;;;;;;5105394;28;20210;-41
2021/03/04 05:20:01;;;;;;;41.17;25.83;;;;;;;;;;5114330;28;21168;-42
2021/03/04 05:22:26;;;;;;;40.80;25.40;;;;;;;;;;5104533;28;20226;-42
2021/03/04 05:24:51;;;;;;;42.10;25.40;;;;;;;;;;5124797;27;20177;-41
2021/03/04 05:27:16;;;;;;;40.87;25.73;;;;;;;;;;5111377;28;20255;-43
2021/03/04 05:29:41;;;;;;;37.53;24.47;;;;;;;;;;5112791;28;20182;-41
2021/03/04 05:32:07;;;;;;;44.30;25.83;;;;;;;;;;5113856;27;20182;-41
2021/03/04 05:34:32;;;;;;;41.13;26.70;;;;;;;;;;5110236;28;20270;-43
2021/03/04 05:36:57;;;;;;;41.27;27.03;;;;;;;;;;5109694;28;20228;-41
2021/03/04 05:39:22;;;;;;;44.33;25.70;;;;;;;;;;5098084;28;20874;-41
2021/03/04 05:41:48;;;;;;;42.78;26.73;;;;;;;;;;5089607;28;20259;-41
2021/03/04 05:44:13;;;;;;;39.63;26.17;;;;;;;;;;5099521;27;20174;-41
2021/03/04 05:46:39;;;;;;;43.33;27.43;;;;;;;;;;5094370;28;20290;-41
2021/03/04 05:49:05;;;;;;;44.67;27.07;;;;;;;;;;5099341;28;20231;-41
2021/03/04 05:51:31;;;;;;;41.40;26.53;;;;;;;;;;5089957;28;20842;-41
2021/03/04 05:53:57;;;;;;;40.73;26.00;;;;;;;;;;5100246;27;20604;-41
2021/03/04 05:56:23;;;;;;;43.80;27.40;;;;;;;;;;5099022;28;20608;-41
2021/03/04 05:58:49;;;;;;;45.10;27.67;;;;;;;;;;5095717;28;20660;-41
2021/03/04 06:01:15;;;;;;;42.20;26.80;;;;;;;;;;5096069;28;20242;-40
2021/03/04 06:03:41;;;;;;;41.57;26.93;;;;;;;;;;5099540;27;20966;-41
2021/03/04 06:06:06;;;;;;;43.20;27.17;;;;;;;;;;5102637;27;21378;-42
2021/03/04 06:08:32;;;;;;;41.53;26.50;;;;;;;;;;5092565;28;20718;-41
2021/03/04 06:10:57;;;;;;;40.57;27.33;;;;;;;;;;5102339;28;20654;-41
2021/03/04 06:13:22;;;;;;;40.42;26.42;;;;;;;;;;5093221;28;20286;-40
2021/03/04 06:15:47;;;;;;;38.78;26.38;;;;;;;;;;5090787;28;20185;-41
2021/03/04 06:18:12;;;;;;;46.70;28.20;;;;;;;;;;5110555;28;20208;-41
2021/03/04 06:20:41;;;;;;;40.93;27.40;;;;;;;;;;5105839;27;20178;-41
2021/03/04 06:23:06;;;;;;;38.60;26.80;;;;;;;;;;5099500;28;20200;-40
2021/03/04 06:25:32;;;;;;;44.40;26.27;;;;;;;;;;5106363;28;20634;-40
2021/03/04 06:27:57;;;;;;;42.77;27.57;;;;;;;;;;5111052;28;20234;-41
2021/03/04 06:30:22;;;;;;;42.77;28.27;;;;;;;;;;5111783;28;20170;-40
2021/03/04 06:32:55;;;;;;;42.93;25.80;;;;;;;;;;5111742;27;20188;-41
2021/03/04 06:35:21;;;;;;;41.90;26.60;;;;;;;;;;5110880;28;20177;-41
2021/03/04 06:37:46;;;;;;;43.80;26.83;;;;;;;;;;5111496;28;21215;-41
2021/03/04 06:40:17;;;;;;;42.30;26.57;;;;;;;;;;5111304;28;20186;-41
2021/03/04 06:42:43;;;;;;;34.70;24.23;;;;;;;;;;5112346;27;20174;-41
2021/03/04 06:45:21;;;;;;;44.00;28.27;;;;;;;;;;5111146;28;20598;-41
2021/03/04 06:47:46;;;;;;;38.90;25.60;;;;;;;;;;5111154;28;20181;-41
2021/03/04 06:50:20;;;;;;;42.90;27.95;;;;;;;;;;5111613;28;20599;-42
2021/03/04 06:52:45;;;;;;;36.93;25.00;;;;;;;;;;5112202;27;20178;-41
2021/03/04 06:55:11;;;;;;;40.03;25.70;;;;;;;;;;5111025;28;20574;-41
2021/03/04 06:57:36;;;;;;;44.83;28.40;;;;;;;;;;5119691;27;20197;-41
2021/03/04 07:00:06;;;;;;;39.00;26.70;;;;;;;;;;5131846;27;20733;-41
2021/03/04 07:02:31;;;;;;;41.60;28.90;;;;;;;;;;5106738;27;20269;-42
2021/03/04 07:04:57;;;;;;;43.60;27.10;;;;;;;;;;5109452;27;20752;-41
2021/03/04 07:07:24;;;;;;;44.80;28.10;;;;;;;;;;5098210;28;20189;-41
2021/03/04 07:09:50;;;;;;;44.17;26.90;;;;;;;;;;5105098;28;20684;-43
2021/03/04 07:12:17;;;;;;;49.50;29.07;;;;;;;;;;5104012;27;20772;-41
2021/03/04 07:14:42;;;;;;;43.60;27.60;;;;;;;;;;5103099;28;20265;-41
2021/03/04 07:17:07;;;;;;;40.90;27.90;;;;;;;;;;5093753;28;21350;-41
2021/03/04 07:19:33;;;;;;;39.63;27.03;;;;;;;;;;5088995;28;20685;-41
2021/03/04 07:21:58;;;;;;;45.50;28.13;;;;;;;;;;5091759;27;20170;-41
2021/03/04 07:24:24;;;;;;;40.97;27.47;;;;;;;;;;5107613;28;20181;-42
2021/03/04 07:26:49;;;;;;;41.60;29.17;;;;;;;;;;5111886;27;20173;-41
2021/03/04 07:29:15;;;;;;;44.07;29.13;;;;;;;;;;5128775;27;20601;-43
2021/03/04 07:31:42;;;;;;;46.40;29.70;;;;;;;;;;5128582;27;20185;-42
2021/03/04 07:34:16;;;;;;;40.47;27.13;;;;;;;;;;5111436;27;20192;-42
2021/03/04 07:36:44;;;;;;;43.83;29.30;;;;;;;;;;5107106;28;20590;-40
2021/03/04 07:39:09;;;;;;;48.67;28.80;;;;;;;;;;5107989;28;20632;-40
2021/03/04 07:41:38;;;;;;;44.63;29.70;;;;;;;;;;5109447;27;21192;-41
2021/03/04 07:44:04;;;;;;;42.80;28.30;;;;;;;;;;5128014;27;20173;-41
2021/03/04 07:46:33;;;;;;;43.47;28.00;;;;;;;;;;5127953;27;20630;-42
2021/03/04 07:49:00;;;;;;;45.93;31.03;;;;;;;;;;5128051;27;20563;-41
2021/03/04 07:51:25;;;;;;;39.27;27.73;;;;;;;;;;5127445;27;20946;-41
2021/03/04 07:53:52;;;;;;;39.80;27.60;;;;;;;;;;5126171;27;20586;-41
2021/03/04 07:56:27;;;;;;;41.70;29.30;;;;;;;;;;5119780;27;20170;-41
2021/03/04 07:58:53;;;;;;;45.00;29.70;;;;;;;;;;5086921;28;20576;-41
2021/03/04 08:01:19;;;;;;;44.70;30.13;;;;;;;;;;5088227;28;21526;-42
2021/03/04 08:03:45;;;;;;;44.93;31.23;;;;;;;;;;5099904;27;20591;-42
2021/03/04 08:06:10;;;;;;;44.57;29.50;;;;;;;;;;5091138;28;20217;-42
2021/03/04 08:08:39;;;;;;;42.07;30.10;;;;;;;;;;5066006;28;20636;-42
2021/03/04 08:11:04;;;;;;;45.10;30.17;;;;;;;;;;5085387;28;20182;-42
2021/03/04 08:13:34;;;;;;;40.27;30.60;;;;;;;;;;5118946;27;20757;-43
2021/03/04 08:15:59;;;;;;;43.10;29.83;;;;;;;;;;5105614;28;20212;-42
2021/03/04 08:18:28;;;;;;;42.10;31.03;;;;;;;;;;5106363;28;20713;-42
2021/03/04 08:21:01;;;;;;;44.13;30.53;;;;;;;;;;5106916;28;20622;-43
2021/03/04 08:23:27;;;;;;;42.80;30.27;;;;;;;;;;5111805;27;20960;-42
2021/03/04 08:25:52;;;;;;;45.43;31.17;;;;;;;;;;5095931;28;20702;-42
2021/03/04 08:28:24;;;;;;;41.73;31.10;;;;;;;;;;5105980;27;20615;-42
2021/03/04 08:30:50;;;;;;;41.47;28.27;;;;;;;;;;5100260;28;20181;-42
2021/03/04 08:33:15;;;;;;;41.93;30.13;;;;;;;;;;5105124;28;21027;-42
2021/03/04 08:35:43;;;;;;;46.53;32.83;;;;;;;;;;5104728;28;20647;-41
2021/03/04 08:38:09;;;;;;;42.03;29.70;;;;;;;;;;5095760;28;20195;-44
2021/03/04 08:40:45;;;;;;;41.50;30.23;;;;;;;;;;5106133;28;20613;-41
2021/03/04 08:43:11;;;;;;;46.77;32.50;;;;;;;;;;5106484;28;20594;-41
2021/03/04 08:45:36;;;;;;;42.80;31.40;;;;;;;;;;5104227;28;20645;-41
2021/03/04 08:48:05;;;;;;;41.90;32.50;;;;;;;;;;5095078;28;20982;-41
2021/03/04 08:50:40;;;;;;;47.47;31.83;;;;;;;;;;5099399;28;20176;-42
2021/03/04 08:53:10;;;;;;;43.17;32.97;;;;;;;;;;5102751;28;20607;-40
2021/03/04 08:55:42;;;;;;;43.60;31.80;;;;;;;;;;5095074;28;20627;-42
2021/03/04 08:58:07;;;;;;;40.80;29.73;;;;;;;;;;5102813;28;20637;-42
2021/03/04 09:00:32;;;;;;;41.13;30.87;;;;;;;;;;5107196;28;20622;-41
2021/03/04 09:03:07;;;;;;;40.53;31.10;;;;;;;;;;5107611;28;20669;-42
2021/03/04 09:05:33;;;;;;;42.33;32.00;;;;;;;;;;5099879;28;20315;-40
2021/03/04 09:07:58;;;;;;;47.13;32.43;;;;;;;;;;5092295;28;21212;-41
2021/03/04 09:10:23;;;;;;;46.55;32.60;;;;;;;;;;5105986;28;20182;-41
2021/03/04 09:12:48;;;;;;;40.87;32.40;;;;;;;;;;5120873;28;20174;-41
2021/03/04 09:15:16;;;;;;;44.38;34.65;;;;;;;;;;5129453;28;20180;-42
2021/03/04 09:17:45;;;;;;;41.63;33.87;;;;;;;;;;5129243;28;20256;-42
2021/03/04 09:20:11;;;;;;;46.03;34.40;;;;;;;;;;5129650;28;20931;-42
2021/03/04 09:22:38;;;;;;;40.77;32.07;;;;;;;;;;5121517;28;20936;-42
